Time;durP1;ratioP1;P1;durP2;ratioP2;P2;SDS_P1;SDS_P2;PMS_P1;PMS_P2;Temp;Humidity;BMP_temperature;BMP_pressure;BME280_temperature;BME280_humidity;BME280_pressure;Samples;Min_cycle;Max_cycle;Signal;HPM_P1;HPM_P2
2022/12/17 13:06:10;;;;;;;1999.90;999.90;;;0.90;99.90;;;;;;5011006;28;20449;-71
2022/12/17 13:08:37;;;;;;;1999.90;999.90;;;1.00;99.90;;;;;;5007393;28;20548;-70
2022/12/17 13:11:26;;;;;;;1999.90;999.90;;;1.10;99.90;;;;;;4994558;28;20446;-70
2022/12/17 13:13:55;;;;;;;1999.90;999.90;;;0.70;99.90;;;;;;4980494;28;20466;-69
2022/12/17 13:16:33;;;;;;;1999.90;999.90;;;0.30;99.90;;;;;;5011094;28;20450;-70
2022/12/17 13:19:16;;;;;;;1999.90;999.90;;;0.20;99.90;;;;;;5010877;28;20448;-70
2022/12/17 13:21:43;;;;;;;1999.90;999.90;;;0.30;99.90;;;;;;5008030;28;20477;-70
2022/12/17 13:24:11;;;;;;;1999.90;999.90;;;0.30;99.90;;;;;;5011910;28;20457;-69
2022/12/17 13:26:44;;;;;;;1999.90;999.90;;;0.20;99.90;;;;;;5007757;28;20509;-70
2022/12/17 13:29:19;;;;;;;1999.90;999.90;;;0.20;99.90;;;;;;5008505;28;21272;-70
2022/12/17 13:31:58;;;;;;;1999.90;999.90;;;0.40;99.90;;;;;;5012122;28;20434;-71
2022/12/17 13:34:30;;;;;;;1999.90;999.90;;;0.60;99.90;;;;;;5011359;28;20469;-70
2022/12/17 13:37:03;;;;;;;1999.90;999.90;;;0.60;99.90;;;;;;5011455;28;20469;-71
2022/12/17 13:39:38;;;;;;;1999.90;999.90;;;0.50;99.90;;;;;;5003399;28;20449;-69
2022/12/17 13:42:05;;;;;;;1999.90;999.90;;;0.50;99.90;;;;;;5006231;28;20485;-69
2022/12/17 13:44:40;;;;;;;1999.90;999.90;;;0.50;99.90;;;;;;5004074;28;20482;-69
2022/12/17 13:47:20;;;;;;;1999.90;999.90;;;0.50;99.90;;;;;;5007213;28;20441;-70
2022/12/17 13:49:51;;;;;;;1999.90;999.90;;;0.30;99.90;;;;;;5005338;28;20449;-69
2022/12/17 13:52:19;;;;;;;1999.90;999.90;;;0.00;99.90;;;;;;5008310;28;20441;-68
2022/12/17 13:54:46;;;;;;;1999.90;999.90;;;-0.40;99.90;;;;;;5006294;28;20503;-68
2022/12/17 13:57:16;;;;;;;1999.90;999.90;;;-0.70;99.90;;;;;;5009260;28;20444;-69
2022/12/17 13:59:49;;;;;;;1999.90;999.90;;;-0.80;99.90;;;;;;5008936;28;20960;-70
2022/12/17 14:02:25;;;;;;;1999.90;999.90;;;-0.70;99.90;;;;;;5011067;28;20472;-69
2022/12/17 14:04:53;;;;;;;1999.90;999.90;;;-0.70;99.90;;;;;;5014487;28;21248;-68
2022/12/17 14:07:21;;;;;;;1999.90;999.90;;;-0.80;99.90;;;;;;5016912;28;20503;-68
2022/12/17 14:09:49;;;;;;;1999.90;999.90;;;-0.80;99.90;;;;;;5012376;28;20613;-68
2022/12/17 14:12:23;;;;;;;1999.90;999.90;;;-0.80;99.90;;;;;;5005152;28;20983;-70
2022/12/17 14:14:55;;;;;;;1999.90;999.90;;;-0.80;99.90;;;;;;5008217;28;20500;-69
2022/12/17 14:17:25;;;;;;;1999.90;999.90;;;-0.80;99.90;;;;;;4998677;28;20468;-69
2022/12/17 14:19:58;;;;;;;1999.90;999.90;;;-0.90;99.90;;;;;;4998864;28;20458;-69
2022/12/17 14:22:32;;;;;;;1999.90;999.90;;;-1.00;99.90;;;;;;4995198;28;21082;-69
2022/12/17 14:24:59;;;;;;;1999.90;999.90;;;-1.30;99.90;;;;;;4995960;28;20480;-68
2022/12/17 14:27:31;;;;;;;1999.90;999.90;;;-1.40;99.90;;;;;;5003731;28;20453;-68
2022/12/17 14:29:58;;;;;;;1999.90;999.90;;;-1.60;99.90;;;;;;5007547;28;20446;-68
2022/12/17 14:32:32;;;;;;;1999.90;999.90;;;-1.70;99.90;;;;;;5008093;28;20457;-69
2022/12/17 14:34:59;;;;;;;1999.90;999.90;;;-1.70;99.90;;;;;;5003151;28;20459;-68
2022/12/17 14:37:27;;;;;;;1999.90;999.90;;;-1.70;99.90;;;;;;5007865;28;20449;-68
2022/12/17 14:40:00;;;;;;;1999.90;999.90;;;-1.80;99.90;;;;;;4998466;28;21296;-69
2022/12/17 14:42:28;;;;;;;1999.90;999.90;;;-2.00;99.90;;;;;;5004855;28;20478;-68
2022/12/17 14:44:58;;;;;;;1999.90;999.90;;;-2.20;99.90;;;;;;5009111;28;20470;-69
2022/12/17 14:47:29;;;;;;;1999.90;999.90;;;-2.40;99.90;;;;;;5003246;28;20450;-68
2022/12/17 14:50:00;;;;;;;1999.90;999.90;;;-2.60;99.90;;;;;;5005508;28;20449;-69
2022/12/17 14:52:36;;;;;;;1999.90;999.90;;;-2.80;99.90;;;;;;5003875;28;20472;-69
2022/12/17 14:55:21;;;;;;;1999.90;999.90;;;-3.00;99.90;;;;;;5005029;28;20537;-69
2022/12/17 14:57:48;;;;;;;1999.90;999.90;;;-3.10;99.90;;;;;;5005030;28;20501;-69
2022/12/17 15:00:15;;;;;;;1999.90;999.90;;;-3.20;99.90;;;;;;5005185;28;20548;-69
2022/12/17 15:02:46;;;;;;;1999.90;999.90;;;-3.20;99.90;;;;;;5007226;28;20592;-69
2022/12/17 15:05:14;;;;;;;1999.90;999.90;;;-3.30;99.90;;;;;;5004042;28;20450;-68
2022/12/17 15:07:41;;;;;;;1999.90;999.90;;;-3.40;99.90;;;;;;5003812;28;21009;-69
2022/12/17 15:10:11;;;;;;;1999.90;999.90;;;-3.40;99.90;;;;;;5003618;28;20973;-70
2022/12/17 15:12:40;;;;;;;1999.90;999.90;;;-3.50;99.90;;;;;;5005454;28;21301;-70
2022/12/17 15:15:11;;;;;;;1999.90;999.90;;;-3.40;99.90;;;;;;5005470;28;20461;-69
2022/12/17 15:17:38;;;;;;;1999.90;999.90;;;-3.30;99.90;;;;;;5004769;28;20473;-69
2022/12/17 15:20:11;;;;;;;1999.90;999.90;;;-3.40;99.90;;;;;;5003829;28;20461;-70
2022/12/17 15:22:38;;;;;;;1999.90;999.90;;;-3.50;99.90;;;;;;5003416;28;20498;-69
2022/12/17 15:25:06;;;;;;;1999.90;999.90;;;-3.60;99.90;;;;;;5003754;28;20447;-70
2022/12/17 15:27:33;;;;;;;1999.90;999.90;;;-3.60;99.90;;;;;;5003758;28;20458;-70
2022/12/17 15:29:59;;;;;;;1999.90;999.90;;;-3.70;99.90;;;;;;5001904;28;20925;-69
2022/12/17 15:32:26;;;;;;;1999.90;999.90;;;-3.70;99.90;;;;;;5003877;28;20449;-72
2022/12/17 15:34:53;;;;;;;1999.90;999.90;;;-3.80;99.90;;;;;;5003914;28;20850;-71
2022/12/17 15:37:24;;;;;;;1999.90;999.90;;;-3.70;99.90;;;;;;5003188;28;20446;-71
2022/12/17 15:39:51;;;;;;;1999.90;999.90;;;-3.80;99.90;;;;;;5000141;28;20450;-72
2022/12/17 15:45:01;;;;;;;1999.90;999.90;;;-3.80;99.90;;;;;;5002047;28;20546;-71
2022/12/17 15:47:28;;;;;;;1999.90;999.90;;;-4.00;99.90;;;;;;5001655;28;20457;-72
2022/12/17 15:49:55;;;;;;;1999.90;999.90;;;-4.10;99.90;;;;;;5001605;28;20461;-71
2022/12/17 15:52:23;;;;;;;1999.90;999.90;;;-4.20;99.90;;;;;;5002829;28;20449;-71
2022/12/17 15:54:50;;;;;;;1999.90;999.90;;;-4.20;99.90;;;;;;5004071;28;20464;-70
2022/12/17 15:57:17;;;;;;;1999.90;999.90;;;-4.10;99.90;;;;;;5004003;28;20446;-71
2022/12/17 15:59:43;;;;;;;1999.90;999.90;;;-4.10;99.90;;;;;;5002952;28;20527;-69
2022/12/17 16:02:11;;;;;;;1999.90;999.90;;;-4.30;99.90;;;;;;5003340;28;20477;-68
2022/12/17 16:04:38;;;;;;;1999.90;999.90;;;-4.30;99.90;;;;;;5003744;28;20477;-69
2022/12/17 16:07:05;;;;;;;1999.90;999.90;;;-4.30;99.90;;;;;;4998723;28;20460;-68
2022/12/17 16:09:33;;;;;;;1999.90;999.90;;;-4.30;99.90;;;;;;5003840;28;20460;-67
2022/12/17 16:12:00;;;;;;;1999.90;999.90;;;-4.40;99.90;;;;;;4998828;28;20446;-68
2022/12/17 16:14:27;;;;;;;1999.90;999.90;;;-4.40;99.90;;;;;;5000023;28;20470;-68
2022/12/17 16:16:54;;;;;;;1999.90;999.90;;;-4.50;99.90;;;;;;4998038;28;20501;-67
2022/12/17 16:19:23;;;;;;;1999.90;999.90;;;-4.40;99.90;;;;;;4996356;28;20455;-69
2022/12/17 16:21:50;;;;;;;1999.90;999.90;;;-4.40;99.90;;;;;;5000618;28;20492;-69
2022/12/17 16:24:17;;;;;;;1999.90;999.90;;;-4.40;99.90;;;;;;4992160;28;20473;-69
2022/12/17 16:26:45;;;;;;;1999.90;999.90;;;-4.40;99.90;;;;;;4993945;28;20968;-68
2022/12/17 16:29:12;;;;;;;1999.90;999.90;;;-4.50;99.90;;;;;;4994581;28;20454;-68
2022/12/17 16:31:39;;;;;;;1999.90;999.90;;;-4.60;99.90;;;;;;4992574;28;20542;-70
2022/12/17 16:34:08;;;;;;;1999.90;999.90;;;-4.60;99.90;;;;;;4990819;28;20992;-72
2022/12/17 16:36:35;;;;;;;1999.90;999.90;;;-4.70;99.90;;;;;;4991707;28;21008;-70
2022/12/17 16:39:02;;;;;;;1999.90;999.90;;;-4.80;99.90;;;;;;4993302;28;20458;-70
2022/12/17 16:41:29;;;;;;;1999.90;999.90;;;-5.00;99.90;;;;;;4996747;28;20461;-69
2022/12/17 16:43:57;;;;;;;1999.90;999.90;;;-5.00;99.90;;;;;;4996698;28;21078;-71
2022/12/17 16:46:26;;;;;;;1999.90;999.90;;;-5.00;99.90;;;;;;4996322;28;20559;-70
2022/12/17 16:48:53;;;;;;;1999.90;999.90;;;-5.00;99.90;;;;;;4995049;28;20458;-68
2022/12/17 16:51:22;;;;;;;1999.90;999.90;;;-5.00;99.90;;;;;;4996915;28;20451;-69
2022/12/17 16:53:49;;;;;;;1999.90;999.90;;;-5.10;99.90;;;;;;4999164;28;20484;-70
2022/12/17 16:56:17;;;;;;;1999.90;999.90;;;-5.10;99.90;;;;;;4996192;28;20453;-71
2022/12/17 16:58:44;;;;;;;1999.90;999.90;;;-5.20;99.90;;;;;;4993597;28;20449;-69
2022/12/17 17:01:12;;;;;;;1999.90;999.90;;;-5.10;99.90;;;;;;4993665;28;20454;-70
2022/12/17 17:03:40;;;;;;;1999.90;999.90;;;-5.20;99.90;;;;;;4993754;28;20575;-71
2022/12/17 17:06:07;;;;;;;1999.90;999.90;;;-5.20;99.90;;;;;;4990357;28;20454;-71
2022/12/17 17:08:35;;;;;;;1999.90;999.90;;;-5.20;99.90;;;;;;4994263;28;20449;-68
2022/12/17 17:11:10;;;;;;;1999.90;999.90;;;-5.30;99.90;;;;;;4994750;28;20464;-70
2022/12/17 17:13:38;;;;;;;1999.90;999.90;;;-5.30;99.90;;;;;;4996726;28;20470;-70
2022/12/17 17:16:06;;;;;;;1999.90;999.90;;;-5.40;99.90;;;;;;4997557;28;20462;-69
2022/12/17 17:18:34;;;;;;;1999.90;999.90;;;-5.40;99.90;;;;;;4998409;28;20485;-70
2022/12/17 17:21:22;;;;;;;1999.90;999.90;;;-5.40;99.90;;;;;;4991614;28;20445;-70
2022/12/17 17:23:52;;;;;;;1999.90;999.90;;;-5.40;99.90;;;;;;4993057;28;20494;-69
2022/12/17 17:26:19;;;;;;;1999.90;999.90;;;-5.40;99.90;;;;;;4996382;28;20461;-69
2022/12/17 17:28:46;;;;;;;1999.90;999.90;;;-5.40;99.90;;;;;;4994871;28;20450;-68
2022/12/17 17:31:14;;;;;;;1999.90;999.90;;;-5.40;99.90;;;;;;4995297;28;20465;-69
2022/12/17 17:33:45;;;;;;;1999.90;999.90;;;-5.50;99.90;;;;;;4994383;28;22127;-70
2022/12/17 17:36:13;;;;;;;1999.90;999.90;;;-5.50;99.90;;;;;;4994774;28;20458;-70
2022/12/17 17:38:41;;;;;;;1999.90;999.90;;;-5.50;99.90;;;;;;4991614;28;20449;-70
2022/12/17 17:41:10;;;;;;;1999.90;999.90;;;-5.50;99.90;;;;;;4992976;28;20454;-70
2022/12/17 17:43:37;;;;;;;1999.90;999.90;;;-5.50;99.90;;;;;;4992883;28;20488;-70
2022/12/17 17:46:04;;;;;;;1999.90;999.90;;;-5.50;99.90;;;;;;4998777;28;20549;-70
2022/12/17 17:48:32;;;;;;;1999.90;999.90;;;-5.40;99.90;;;;;;4992693;28;20468;-68
2022/12/17 17:51:02;;;;;;;1999.90;999.90;;;-5.30;99.90;;;;;;5000066;28;20465;-68
2022/12/17 17:53:29;;;;;;;1999.90;999.90;;;-5.30;99.90;;;;;;4998327;28;20489;-69
2022/12/17 17:56:02;;;;;;;1999.90;999.90;;;-5.30;99.90;;;;;;5000593;28;20465;-69
2022/12/17 17:58:29;;;;;;;1999.90;999.90;;;-5.30;99.90;;;;;;4998797;28;20450;-65
2022/12/17 18:00:55;;;;;;;1999.90;999.90;;;-5.40;99.90;;;;;;5003632;28;20461;-69
2022/12/17 18:03:22;;;;;;;1999.90;999.90;;;-5.50;99.90;;;;;;5013949;28;20493;-69
2022/12/17 18:05:49;;;;;;;1999.90;999.90;;;-5.50;99.90;;;;;;5010367;28;20486;-69
2022/12/17 18:08:17;;;;;;;1999.90;999.90;;;-5.50;99.90;;;;;;5008449;28;20829;-76
2022/12/17 18:10:55;;;;;;;1999.90;999.90;;;-5.50;99.90;;;;;;5007042;28;20449;-72
2022/12/17 18:16:06;;;;;;;1999.90;999.90;;;-5.70;99.90;;;;;;5001056;28;20524;-72
2022/12/17 18:18:33;;;;;;;1999.90;999.90;;;-5.80;99.90;;;;;;5009458;28;20537;-69
2022/12/17 18:21:05;;;;;;;1999.90;999.90;;;-5.70;99.90;;;;;;5010096;28;20460;-71
2022/12/17 18:23:34;;;;;;;1999.90;999.90;;;-5.70;99.90;;;;;;5006513;28;20571;-69
2022/12/17 18:26:06;;;;;;;1999.90;999.90;;;-5.70;99.90;;;;;;5008801;28;20450;-71
2022/12/17 18:28:33;;;;;;;1999.90;999.90;;;-5.70;99.90;;;;;;5015385;28;20446;-69
2022/12/17 18:31:06;;;;;;;1999.90;999.90;;;-5.70;99.90;;;;;;5011438;28;20460;-69
2022/12/17 18:33:33;;;;;;;1999.90;999.90;;;-5.70;99.90;;;;;;5012425;28;20548;-70
2022/12/17 18:36:00;;;;;;;1999.90;999.90;;;-5.80;99.90;;;;;;4994269;28;20454;-69
2022/12/17 18:38:27;;;;;;;1999.90;999.90;;;-5.80;99.90;;;;;;4999301;28;20454;-69
2022/12/17 18:40:55;;;;;;;1999.90;999.90;;;-5.80;99.90;;;;;;4999383;28;20473;-68
2022/12/17 18:43:23;;;;;;;1999.90;999.90;;;-5.80;99.90;;;;;;4996816;28;20481;-69
2022/12/17 18:45:51;;;;;;;1999.90;999.90;;;-5.90;99.90;;;;;;5000118;28;20458;-69
2022/12/17 18:48:18;;;;;;;1999.90;999.90;;;-6.10;99.90;;;;;;5003121;28;20449;-70
2022/12/17 18:50:45;;;;;;;1999.90;999.90;;;-6.10;99.90;;;;;;5003700;28;20464;-70
2022/12/17 18:53:12;;;;;;;1999.90;999.90;;;-6.10;99.90;;;;;;5009332;28;20469;-70
2022/12/17 18:55:39;;;;;;;1999.90;999.90;;;-6.10;99.90;;;;;;5007328;28;20541;-70
2022/12/17 18:58:09;;;;;;;1999.90;999.90;;;-6.20;99.90;;;;;;5005914;28;20454;-69
2022/12/17 19:00:38;;;;;;;1999.90;999.90;;;-6.10;99.90;;;;;;5003080;28;20450;-69
2022/12/17 19:03:05;;;;;;;1999.90;999.90;;;-6.10;99.90;;;;;;5006809;28;20485;-70
2022/12/17 19:05:32;;;;;;;1999.90;999.90;;;-6.10;99.90;;;;;;5005186;28;20461;-69
2022/12/17 19:07:58;;;;;;;1999.90;999.90;;;-6.00;99.90;;;;;;5007823;28;21301;-69
2022/12/17 19:10:25;;;;;;;1999.90;999.90;;;-6.00;99.90;;;;;;5012875;28;20453;-70
2022/12/17 19:12:52;;;;;;;1999.90;999.90;;;-6.00;99.90;;;;;;5007694;28;20450;-70
2022/12/17 19:15:20;;;;;;;1999.90;999.90;;;-5.90;99.90;;;;;;5005238;28;20453;-69
2022/12/17 19:17:49;;;;;;;1999.90;999.90;;;-5.90;99.90;;;;;;5013454;28;20464;-69
2022/12/17 19:20:17;;;;;;;1999.90;999.90;;;-5.90;99.90;;;;;;5014590;28;20503;-69
2022/12/17 19:22:44;;;;;;;1999.90;999.90;;;-5.90;99.90;;;;;;5015365;28;20482;-70
2022/12/17 19:25:11;;;;;;;1999.90;999.90;;;-5.90;99.90;;;;;;5012228;28;20453;-69
2022/12/17 19:27:38;;;;;;;1999.90;999.90;;;-5.90;99.90;;;;;;5013839;28;20815;-69
2022/12/17 19:30:06;;;;;;;1999.90;999.90;;;-5.90;99.90;;;;;;5016210;28;20935;-70
2022/12/17 19:32:34;;;;;;;1999.90;999.90;;;-6.00;99.90;;;;;;5010239;28;20442;-69
2022/12/17 19:35:01;;;;;;;1999.90;999.90;;;-6.00;99.90;;;;;;5016164;28;21023;-70
2022/12/17 19:37:28;;;;;;;1999.90;999.90;;;-6.00;99.90;;;;;;5016251;28;20536;-69
2022/12/17 19:39:55;;;;;;;1999.90;999.90;;;-6.00;99.90;;;;;;5012364;28;21122;-69
2022/12/17 19:42:26;;;;;;;1999.90;999.90;;;-6.10;99.90;;;;;;5016289;28;20810;-69
2022/12/17 19:45:15;;;;;;;1999.90;999.90;;;-6.20;99.90;;;;;;5015786;28;20469;-70
2022/12/17 19:47:43;;;;;;;1999.90;999.90;;;-6.20;99.90;;;;;;5018061;28;21155;-69
2022/12/17 19:50:10;;;;;;;1999.90;999.90;;;-6.20;99.90;;;;;;5014660;28;20433;-69
2022/12/17 19:52:40;;;;;;;1999.90;999.90;;;-6.30;99.90;;;;;;5006714;28;20446;-69
2022/12/17 19:55:07;;;;;;;1999.90;999.90;;;-6.40;99.90;;;;;;5002109;28;20464;-70
2022/12/17 19:57:34;;;;;;;1999.90;999.90;;;-6.50;99.90;;;;;;5007966;28;20450;-69
2022/12/17 20:00:01;;;;;;;1999.90;999.90;;;-6.40;99.90;;;;;;5000063;28;22055;-68
2022/12/17 20:02:28;;;;;;;1999.90;999.90;;;-6.30;99.90;;;;;;4988123;28;21124;-68
2022/12/17 20:04:56;;;;;;;1999.90;999.90;;;-6.30;99.90;;;;;;5001975;28;20481;-69
2022/12/17 20:07:23;;;;;;;1999.90;999.90;;;-6.30;99.90;;;;;;5005470;28;20533;-69
2022/12/17 20:09:50;;;;;;;1999.90;999.90;;;-6.30;99.90;;;;;;5005618;28;20453;-68
2022/12/17 20:12:16;;;;;;;1999.90;999.90;;;-6.30;99.90;;;;;;5008322;28;20456;-69
2022/12/17 20:14:43;;;;;;;1999.90;999.90;;;-6.40;99.90;;;;;;5026353;28;20487;-69
2022/12/17 20:17:10;;;;;;;1999.90;999.90;;;-6.30;99.90;;;;;;5005343;28;20461;-68
2022/12/17 20:19:37;;;;;;;1999.90;999.90;;;-6.30;99.90;;;;;;5005383;28;20442;-68
2022/12/17 20:22:05;;;;;;;1999.90;999.90;;;-6.50;99.90;;;;;;5006014;28;20457;-69
2022/12/17 20:24:32;;;;;;;1999.90;999.90;;;-6.50;99.90;;;;;;5002932;28;20489;-69
2022/12/17 20:27:00;;;;;;;1999.90;999.90;;;-6.70;99.90;;;;;;5003497;28;20457;-69
2022/12/17 20:29:27;;;;;;;1999.90;999.90;;;-6.60;99.90;;;;;;5005429;28;20446;-69
2022/12/17 20:31:54;;;;;;;1999.90;999.90;;;-6.70;99.90;;;;;;5014810;28;20453;-68
2022/12/17 20:34:25;;;;;;;1999.90;999.90;;;-6.80;99.90;;;;;;5004648;28;20927;-69
2022/12/17 20:36:52;;;;;;;1999.90;999.90;;;-6.90;99.90;;;;;;5006622;28;20453;-69
2022/12/17 20:39:21;;;;;;;1999.90;999.90;;;-7.20;99.90;;;;;;5005437;28;20486;-70
2022/12/17 20:41:50;;;;;;;1999.90;999.90;;;-7.30;99.90;;;;;;5006813;28;20452;-69
2022/12/17 20:44:17;;;;;;;1999.90;999.90;;;-7.10;99.90;;;;;;5005491;28;20533;-71
2022/12/17 20:46:44;;;;;;;1999.90;999.90;;;-7.20;99.90;;;;;;5005484;28;21244;-69
2022/12/17 20:49:13;;;;;;;1999.90;999.90;;;-7.00;99.90;;;;;;5003217;28;20827;-70
2022/12/17 20:51:40;;;;;;;1999.90;999.90;;;-7.10;99.90;;;;;;4999057;28;20500;-69
2022/12/17 20:54:08;;;;;;;1999.90;999.90;;;-7.10;99.90;;;;;;5003949;28;20814;-69
2022/12/17 20:56:39;;;;;;;1999.90;999.90;;;-7.10;99.90;;;;;;5012083;28;20989;-70
2022/12/17 20:59:08;;;;;;;1999.90;999.90;;;-7.00;99.90;;;;;;5014268;28;20442;-69
2022/12/17 21:01:36;;;;;;;1999.90;999.90;;;-7.10;99.90;;;;;;5012710;28;20449;-70
2022/12/17 21:04:05;;;;;;;1999.90;999.90;;;-7.20;99.90;;;;;;5006270;28;20459;-70
2022/12/17 21:06:35;;;;;;;1999.90;999.90;;;-7.20;99.90;;;;;;4997089;28;20446;-70
2022/12/17 21:09:03;;;;;;;1999.90;999.90;;;-7.10;99.90;;;;;;4995500;28;20450;-70
2022/12/17 21:11:32;;;;;;;1999.90;999.90;;;-7.20;99.90;;;;;;4997822;28;20442;-67
2022/12/17 21:14:02;;;;;;;1999.90;999.90;;;-7.20;99.90;;;;;;5004485;28;20946;-68
2022/12/17 21:16:30;;;;;;;1999.90;999.90;;;-7.30;99.90;;;;;;5009693;28;20503;-69
2022/12/17 21:18:59;;;;;;;1999.90;999.90;;;-7.40;99.90;;;;;;5010824;28;20454;-69
2022/12/17 21:21:29;;;;;;;1999.90;999.90;;;-7.50;99.90;;;;;;5011141;28;20437;-70
2022/12/17 21:23:57;;;;;;;1999.90;999.90;;;-7.40;99.90;;;;;;5013837;28;20998;-70
2022/12/17 21:26:28;;;;;;;1999.90;999.90;;;-7.50;99.90;;;;;;5020212;28;20436;-70
2022/12/17 21:29:01;;;;;;;1999.90;999.90;;;-7.40;99.90;;;;;;5012790;28;20460;-67
2022/12/17 21:31:29;;;;;;;1999.90;999.90;;;-7.50;99.90;;;;;;5015470;28;20445;-68
2022/12/17 21:33:58;;;;;;;1999.90;999.90;;;-7.70;99.90;;;;;;5020544;28;20472;-68
2022/12/17 21:36:26;;;;;;;1999.90;999.90;;;-7.80;99.90;;;;;;4996213;28;20549;-68
2022/12/17 21:38:53;;;;;;;1999.90;999.90;;;-7.70;99.90;;;;;;4989207;28;20446;-68
2022/12/17 21:41:22;;;;;;;1999.90;999.90;;;-7.60;99.90;;;;;;4995036;28;20453;-68
2022/12/17 21:43:52;;;;;;;1999.90;999.90;;;-7.60;99.90;;;;;;5023562;28;20480;-69
2022/12/17 21:46:21;;;;;;;1999.90;999.90;;;-7.60;99.90;;;;;;5018541;28;20428;-69
2022/12/17 21:48:47;;;;;;;1999.90;999.90;;;-7.60;99.90;;;;;;5009206;28;20445;-69
2022/12/17 21:51:15;;;;;;;1999.90;999.90;;;-7.60;99.90;;;;;;5007843;28;20973;-69
2022/12/17 21:53:42;;;;;;;1999.90;999.90;;;-7.60;99.90;;;;;;5005450;28;20549;-69
2022/12/17 21:56:11;;;;;;;1999.90;999.90;;;-7.60;99.90;;;;;;5009369;28;20453;-69
2022/12/17 21:58:38;;;;;;;1999.90;999.90;;;-7.80;99.90;;;;;;5008364;28;20453;-70
2022/12/17 22:01:10;;;;;;;1999.90;999.90;;;-7.90;99.90;;;;;;5008409;28;20458;-69
2022/12/17 22:03:38;;;;;;;1999.90;999.90;;;-7.90;99.90;;;;;;5015519;28;21011;-69
2022/12/17 22:06:07;;;;;;;1999.90;999.90;;;-7.80;99.90;;;;;;5029126;28;20935;-69
2022/12/17 22:08:34;;;;;;;1999.90;999.90;;;-7.70;99.90;;;;;;5027262;28;20515;-69
2022/12/17 22:11:09;;;;;;;1999.90;999.90;;;-7.60;99.90;;;;;;5017515;28;20450;-69
2022/12/17 22:16:21;;;;;;;1999.90;999.90;;;-7.70;99.90;;;;;;5000977;28;20491;-69
2022/12/17 22:18:50;;;;;;;1999.90;999.90;;;-7.60;99.90;;;;;;5007742;28;20457;-69
2022/12/17 22:21:17;;;;;;;1999.90;999.90;;;-7.70;99.90;;;;;;5008669;28;20553;-70
2022/12/17 22:23:46;;;;;;;1999.90;999.90;;;-7.90;99.90;;;;;;5008605;28;20875;-68
2022/12/17 22:26:14;;;;;;;1999.90;999.90;;;-7.80;99.90;;;;;;5008853;28;20450;-69
2022/12/17 22:28:42;;;;;;;1999.90;999.90;;;-7.80;99.90;;;;;;5007902;28;20465;-69
2022/12/17 22:33:58;;;;;;;1999.90;999.90;;;-7.90;99.90;;;;;;5008140;28;20453;-69
2022/12/17 22:36:25;;;;;;;1999.90;999.90;;;-8.00;99.90;;;;;;4999997;28;20533;-69
2022/12/17 22:38:52;;;;;;;1999.90;999.90;;;-7.90;99.90;;;;;;5005242;28;20434;-69
2022/12/17 22:44:01;;;;;;;1999.90;999.90;;;-7.70;99.90;;;;;;5012223;28;20576;-70
2022/12/17 22:46:27;;;;;;;1999.90;999.90;;;-7.80;99.90;;;;;;5010508;28;20524;-70
2022/12/17 22:48:56;;;;;;;1999.90;999.90;;;-8.00;99.90;;;;;;5014992;28;20460;-70
2022/12/17 22:51:24;;;;;;;1999.90;999.90;;;-8.00;99.90;;;;;;4999885;28;21012;-70
2022/12/17 22:53:52;;;;;;;1999.90;999.90;;;-8.00;99.90;;;;;;4988344;28;20474;-71
2022/12/17 22:56:19;;;;;;;1999.90;999.90;;;-8.00;99.90;;;;;;4988816;28;20867;-71
2022/12/17 22:58:46;;;;;;;1999.90;999.90;;;-7.90;99.90;;;;;;4987657;28;20460;-69
2022/12/17 23:01:13;;;;;;;1999.90;999.90;;;-8.00;99.90;;;;;;4999905;28;20456;-70
2022/12/17 23:03:39;;;;;;;1999.90;999.90;;;-7.90;99.90;;;;;;5019102;28;20467;-70
2022/12/17 23:06:07;;;;;;;1999.90;999.90;;;-7.80;99.90;;;;;;5027756;28;20690;-72
2022/12/17 23:08:36;;;;;;;1999.90;999.90;;;-7.90;99.90;;;;;;5017815;28;20460;-72
2022/12/17 23:11:07;;;;;;;1999.90;999.90;;;-7.90;99.90;;;;;;5008163;28;20460;-72
2022/12/17 23:13:33;;;;;;;1999.90;999.90;;;-8.00;99.90;;;;;;5007229;28;20466;-71
2022/12/17 23:16:00;;;;;;;1999.90;999.90;;;-8.00;99.90;;;;;;5007500;28;20428;-71
2022/12/17 23:18:27;;;;;;;1999.90;999.90;;;-8.00;99.90;;;;;;5006856;28;20587;-72
2022/12/17 23:20:54;;;;;;;1999.90;999.90;;;-8.00;99.90;;;;;;5008027;28;20453;-71
2022/12/17 23:23:21;;;;;;;1999.90;999.90;;;-8.20;99.90;;;;;;5007116;28;20466;-71
2022/12/17 23:25:49;;;;;;;1999.90;999.90;;;-8.30;99.90;;;;;;5001309;28;20486;-70
2022/12/17 23:28:15;;;;;;;1999.90;999.90;;;-8.20;99.90;;;;;;4987699;28;20443;-71
2022/12/17 23:30:42;;;;;;;1999.90;999.90;;;-8.20;99.90;;;;;;4990697;28;20460;-71
2022/12/17 23:33:09;;;;;;;1999.90;999.90;;;-8.00;99.90;;;;;;5009771;28;20486;-72
2022/12/17 23:35:36;;;;;;;1999.90;999.90;;;-8.00;99.90;;;;;;4999421;28;20466;-70
2022/12/17 23:38:02;;;;;;;1999.90;999.90;;;-8.20;99.90;;;;;;5006728;28;20449;-71
2022/12/17 23:40:29;;;;;;;1999.90;999.90;;;-8.10;99.90;;;;;;5006258;28;20825;-71
2022/12/17 23:42:59;;;;;;;1999.90;999.90;;;-8.00;99.90;;;;;;5006582;28;20795;-70
2022/12/17 23:45:27;;;;;;;1999.90;999.90;;;-7.90;99.90;;;;;;5006055;28;20487;-71
2022/12/17 23:47:54;;;;;;;1999.90;999.90;;;-8.00;99.90;;;;;;5007703;28;20445;-70
2022/12/17 23:50:20;;;;;;;1999.90;999.90;;;-8.00;99.90;;;;;;5006654;28;20955;-71
2022/12/17 23:52:47;;;;;;;1999.90;999.90;;;-8.10;99.90;;;;;;5020562;28;20476;-70
2022/12/17 23:55:14;;;;;;;1999.90;999.90;;;-8.10;99.90;;;;;;5027419;28;20445;-71
2022/12/17 23:57:41;;;;;;;1999.90;999.90;;;-8.10;99.90;;;;;;5026181;28;20453;-71
